createdAt,value
2019-02-11T00:00:32.434Z,1.65
2019-02-11T00:03:00.431Z,1.00
2019-02-11T00:05:28.836Z,1.20
2019-02-11T00:07:57.881Z,0.90
2019-02-11T00:10:27.931Z,1.93
2019-02-11T00:12:57.205Z,0.97
2019-02-11T00:15:27.060Z,1.40
2019-02-11T00:17:56.791Z,1.40
2019-02-11T00:20:26.375Z,1.00
2019-02-11T00:22:55.521Z,0.90
2019-02-11T00:25:24.662Z,0.97
2019-02-11T00:27:54.041Z,1.00
2019-02-11T00:30:23.173Z,0.90
2019-02-11T00:32:53.311Z,1.50
2019-02-11T00:35:23.071Z,1.10
2019-02-11T00:37:52.526Z,0.80
2019-02-11T00:40:21.979Z,1.10
2019-02-11T00:42:51.789Z,1.20
2019-02-11T00:45:21.054Z,0.85
2019-02-11T00:47:50.805Z,1.10
2019-02-11T00:50:20.257Z,1.00
2019-02-11T00:52:49.394Z,0.90
2019-02-11T00:55:18.802Z,1.07
2019-02-11T00:57:48.614Z,1.20
2019-02-11T01:00:17.495Z,1.00
2019-02-11T01:02:46.618Z,0.90
2019-02-11T01:05:15.180Z,1.00
2019-02-11T01:07:43.418Z,1.20
2019-02-11T01:10:11.606Z,0.80
2019-02-11T01:12:39.682Z,1.30
2019-02-11T01:15:10.520Z,1.00
2019-02-11T01:17:38.516Z,0.70
2019-02-11T01:20:09.860Z,0.95
2019-02-11T01:22:37.573Z,0.87
2019-02-11T01:25:06.516Z,0.95
2019-02-11T01:27:34.894Z,1.00
2019-02-11T01:30:04.160Z,1.45
2019-02-11T01:32:32.762Z,1.10
2019-02-11T01:35:00.923Z,0.80
2019-02-11T01:37:29.072Z,1.03
2019-02-11T01:39:57.509Z,0.80
2019-02-11T01:42:25.535Z,0.93
2019-02-11T01:44:53.836Z,0.85
2019-02-11T01:47:21.677Z,1.00
2019-02-11T01:49:49.619Z,2.10
2019-02-11T01:52:17.370Z,0.80
2019-02-11T01:54:45.525Z,0.90
2019-02-11T01:57:13.191Z,0.90
2019-02-11T01:59:42.419Z,0.95
2019-02-11T02:02:10.442Z,1.02
2019-02-11T02:04:38.098Z,0.90
2019-02-11T02:07:05.957Z,1.50
2019-02-11T02:09:34.646Z,1.10
2019-02-11T02:12:02.296Z,0.80
2019-02-11T02:14:30.421Z,0.90
2019-02-11T02:17:00.812Z,1.00
2019-02-11T02:19:29.026Z,1.10
2019-02-11T02:21:57.049Z,1.00
2019-02-11T02:24:24.723Z,0.90
2019-02-11T02:26:53.287Z,1.00
2019-02-11T02:29:21.256Z,1.13
2019-02-11T02:31:49.728Z,0.70
2019-02-11T02:34:17.944Z,0.90
2019-02-11T02:36:46.031Z,0.90
2019-02-11T02:39:14.266Z,1.17
2019-02-11T02:41:42.719Z,0.90
2019-02-11T02:44:11.380Z,1.10
2019-02-11T02:46:39.898Z,1.10
2019-02-11T02:49:09.017Z,1.05
2019-02-11T02:51:37.375Z,0.85
2019-02-11T02:54:05.609Z,0.90
2019-02-11T02:56:33.864Z,2.00
2019-02-11T02:59:02.227Z,1.00
2019-02-11T03:01:30.677Z,1.20
2019-02-11T03:03:59.347Z,0.97
2019-02-11T03:06:28.062Z,0.90
2019-02-11T03:08:56.340Z,1.30
2019-02-11T03:11:24.615Z,1.03
2019-02-11T03:13:53.230Z,1.35
2019-02-11T03:16:22.115Z,0.90
2019-02-11T03:18:50.808Z,0.90
2019-02-11T03:21:19.902Z,1.65
2019-02-11T03:23:48.749Z,0.80
2019-02-11T03:26:17.548Z,0.70
2019-02-11T03:28:45.560Z,1.10
2019-02-11T03:31:13.983Z,0.70
2019-02-11T03:33:42.197Z,1.10
2019-02-11T03:36:10.181Z,0.95
2019-02-11T03:38:38.399Z,0.90
2019-02-11T03:41:06.290Z,0.80
2019-02-11T03:43:34.136Z,1.25
2019-02-11T03:46:02.122Z,0.80
2019-02-11T03:48:31.398Z,0.80
2019-02-11T03:50:59.188Z,1.00
2019-02-11T03:53:27.500Z,1.00
2019-02-11T03:55:56.146Z,1.00
2019-02-11T03:58:25.169Z,0.95
2019-02-11T04:00:54.373Z,1.00
2019-02-11T04:03:22.270Z,1.10
2019-02-11T04:05:50.353Z,1.05
2019-02-11T04:08:18.755Z,1.00
2019-02-11T04:10:46.655Z,0.80
2019-02-11T04:13:14.912Z,1.10
2019-02-11T04:15:43.121Z,0.90
2019-02-11T04:18:11.171Z,0.80
2019-02-11T04:20:40.204Z,0.80
2019-02-11T04:23:08.188Z,1.10
2019-02-11T04:25:36.437Z,0.90
2019-02-11T04:28:04.784Z,0.90
2019-02-11T04:30:33.153Z,1.15
2019-02-11T04:33:01.058Z,2.20
2019-02-11T04:35:29.133Z,1.00
2019-02-11T04:37:57.948Z,0.90
2019-02-11T04:40:26.193Z,0.90
2019-02-11T04:42:54.710Z,2.53
2019-02-11T04:45:23.060Z,0.90
2019-02-11T04:47:50.961Z,1.30
2019-02-11T04:50:18.804Z,1.40
2019-02-11T04:52:46.867Z,0.80
2019-02-11T04:55:14.881Z,1.00
2019-02-11T04:57:43.198Z,1.05
2019-02-11T05:00:12.627Z,1.10
2019-02-11T05:02:40.616Z,0.90
2019-02-11T05:05:08.992Z,0.90
2019-02-11T05:07:37.334Z,1.50
2019-02-11T05:10:08.356Z,1.30
2019-02-11T05:12:36.596Z,0.90
2019-02-11T05:15:05.921Z,1.70
2019-02-11T05:17:35.050Z,1.30
2019-02-11T05:20:03.484Z,1.20
2019-02-11T05:22:32.164Z,1.10
2019-02-11T05:25:01.574Z,1.53
2019-02-11T05:27:29.602Z,1.40
2019-02-11T05:29:57.481Z,0.80
2019-02-11T05:32:27.116Z,1.35
2019-02-11T05:34:55.266Z,0.80
2019-02-11T05:37:23.476Z,1.20
2019-02-11T05:39:51.540Z,0.90
2019-02-11T05:42:19.875Z,1.30
2019-02-11T05:44:54.019Z,1.30
2019-02-11T05:47:17.798Z,0.97
2019-02-11T05:49:46.509Z,1.23
2019-02-11T05:52:14.274Z,1.00
2019-02-11T05:54:42.170Z,1.60
2019-02-11T05:57:10.100Z,1.80
2019-02-11T05:59:38.314Z,1.20
2019-02-11T06:02:06.326Z,1.10
2019-02-11T06:04:34.909Z,1.55
2019-02-11T06:07:03.068Z,1.10
2019-02-11T06:09:31.783Z,1.10
2019-02-11T06:12:00.204Z,1.00
2019-02-11T06:14:29.212Z,1.15
2019-02-11T06:16:58.561Z,1.00
2019-02-11T06:19:26.457Z,0.93
2019-02-11T06:21:55.141Z,1.40
2019-02-11T06:24:25.200Z,0.95
2019-02-11T06:26:53.796Z,1.75
2019-02-11T06:29:24.053Z,1.20
2019-02-11T06:31:51.953Z,1.25
2019-02-11T06:34:21.180Z,2.40
2019-02-11T06:36:50.154Z,1.00
2019-02-11T06:39:18.194Z,2.70
2019-02-11T06:44:25.133Z,1.20
2019-02-11T06:46:56.049Z,1.00
2019-02-11T06:49:25.015Z,3.35
2019-02-11T06:51:53.947Z,1.30
2019-02-11T06:57:04.224Z,1.40
2019-02-11T06:59:31.645Z,1.50
2019-02-11T07:01:58.852Z,1.10
2019-02-11T07:04:26.214Z,1.05
2019-02-11T07:06:55.104Z,1.70
2019-02-11T07:09:22.645Z,2.70
2019-02-11T07:11:50.276Z,1.17
2019-02-11T07:14:17.520Z,2.75
2019-02-11T07:16:44.754Z,3.00
2019-02-11T07:19:12.066Z,1.10
2019-02-11T07:21:39.625Z,4.10
2019-02-11T07:24:06.830Z,2.63
2019-02-11T07:26:34.601Z,4.55
2019-02-11T07:29:02.514Z,1.40
2019-02-11T07:31:29.763Z,3.20
2019-02-11T07:33:57.217Z,3.37
2019-02-11T07:36:24.566Z,4.10
2019-02-11T07:38:52.761Z,1.55
2019-02-11T07:41:25.227Z,2.60
2019-02-11T07:44:01.088Z,5.50
2019-02-11T07:46:32.819Z,1.30
2019-02-11T07:49:00.386Z,4.35
2019-02-11T07:51:48.180Z,3.00
2019-02-11T07:54:16.661Z,3.85
2019-02-11T07:56:46.098Z,2.25
2019-02-11T07:59:15.552Z,5.60
2019-02-11T08:01:43.332Z,5.17
2019-02-11T08:04:12.011Z,4.20
2019-02-11T08:06:40.278Z,5.33
2019-02-11T08:09:11.037Z,6.00
2019-02-11T08:11:40.619Z,7.90
2019-02-11T08:14:10.364Z,8.43
2019-02-11T08:16:38.360Z,7.00
2019-02-11T08:19:07.043Z,10.80
2019-02-11T08:21:34.967Z,8.63
2019-02-11T08:24:03.204Z,14.45
2019-02-11T08:26:32.607Z,9.90
2019-02-11T08:29:01.210Z,8.65
2019-02-11T08:31:29.558Z,11.10
2019-02-11T08:33:57.937Z,13.60
2019-02-11T08:36:26.485Z,11.20
2019-02-11T08:38:54.809Z,10.70
2019-02-11T08:41:22.966Z,14.25
2019-02-11T08:43:51.135Z,17.03
2019-02-11T08:46:19.522Z,20.45
2019-02-11T08:48:47.396Z,13.20
2019-02-11T08:51:15.899Z,19.80
2019-02-11T08:53:43.758Z,17.30
2019-02-11T08:56:12.388Z,17.65
2019-02-11T08:58:40.998Z,17.80
2019-02-11T09:01:09.989Z,20.60
2019-02-11T09:03:38.308Z,15.70
2019-02-11T09:06:06.890Z,16.10
2019-02-11T09:08:34.639Z,13.38
2019-02-11T09:11:02.652Z,14.10
2019-02-11T09:13:30.899Z,15.85
2019-02-11T09:15:59.054Z,16.40
2019-02-11T09:18:27.146Z,16.13
2019-02-11T09:20:55.364Z,14.70
2019-02-11T09:23:23.521Z,14.23
2019-02-11T09:25:51.417Z,17.40
2019-02-11T09:28:19.441Z,14.23
2019-02-11T09:30:47.577Z,13.27
2019-02-11T09:33:17.229Z,15.20
2019-02-11T09:35:45.545Z,21.05
2019-02-11T09:38:14.138Z,13.55
2019-02-11T09:40:43.110Z,13.05
2019-02-11T09:43:11.031Z,13.17
2019-02-11T09:45:39.406Z,16.20
2019-02-11T09:48:07.446Z,13.20
2019-02-11T09:50:41.558Z,15.00
2019-02-11T09:53:09.697Z,13.05
2019-02-11T09:55:38.071Z,12.20
2019-02-11T09:58:07.689Z,13.70
2019-02-11T10:00:36.667Z,11.65
2019-02-11T10:03:04.888Z,10.05
2019-02-11T10:05:34.036Z,13.93
2019-02-11T10:08:03.049Z,14.10
2019-02-11T10:10:31.270Z,15.60
2019-02-11T10:12:59.474Z,15.00
2019-02-11T10:15:28.795Z,12.55
2019-02-11T10:17:57.056Z,10.35
2019-02-11T10:20:25.473Z,13.55
2019-02-11T10:22:54.947Z,11.05
2019-02-11T10:25:25.600Z,10.23
2019-02-11T10:27:57.982Z,16.50
2019-02-11T10:30:26.305Z,11.50
2019-02-11T10:32:54.977Z,11.00
2019-02-11T10:35:22.978Z,11.20
2019-02-11T10:37:51.770Z,12.20
2019-02-11T10:40:21.426Z,11.50
2019-02-11T10:42:49.619Z,8.25
2019-02-11T10:45:17.831Z,11.20
2019-02-11T10:47:46.111Z,11.70
2019-02-11T10:50:14.497Z,12.10
2019-02-11T10:52:42.542Z,10.75
2019-02-11T10:55:12.317Z,8.15
2019-02-11T10:57:40.716Z,9.58
2019-02-11T11:00:12.599Z,9.55
2019-02-11T11:02:40.462Z,7.97
2019-02-11T11:05:10.175Z,8.50
2019-02-11T11:07:38.919Z,12.70
2019-02-11T11:10:11.760Z,8.55
2019-02-11T11:12:40.111Z,8.70
2019-02-11T11:15:08.533Z,8.23
2019-02-11T11:17:36.572Z,12.37
2019-02-11T11:20:05.206Z,11.20
2019-02-11T11:22:33.304Z,7.50
2019-02-11T11:25:01.231Z,7.70
2019-02-11T11:27:29.227Z,7.40
2019-02-11T11:29:57.168Z,9.67
2019-02-11T11:32:25.550Z,8.00
2019-02-11T11:34:54.166Z,11.17
2019-02-11T11:37:22.806Z,7.80
2019-02-11T11:39:51.094Z,5.97
2019-02-11T11:42:19.902Z,9.10
2019-02-11T11:44:48.703Z,8.60
2019-02-11T11:47:16.989Z,7.55
2019-02-11T11:49:45.524Z,8.00
2019-02-11T11:52:13.790Z,8.60
2019-02-11T11:54:42.951Z,7.40
2019-02-11T11:57:11.484Z,7.35
2019-02-11T11:59:39.511Z,8.25
2019-02-11T12:02:07.782Z,6.60
2019-02-11T12:04:35.707Z,5.87
2019-02-11T12:07:03.956Z,8.83
2019-02-11T12:09:32.209Z,7.00
2019-02-11T12:12:00.970Z,5.60
2019-02-11T12:14:30.761Z,8.20
2019-02-11T12:17:02.814Z,7.50
2019-02-11T12:19:30.334Z,6.80
2019-02-11T12:22:00.167Z,5.90
2019-02-11T12:24:28.087Z,8.10
2019-02-11T12:26:56.135Z,5.05
2019-02-11T12:29:24.148Z,6.60
2019-02-11T12:31:52.166Z,5.08
2019-02-11T12:34:20.937Z,6.10
2019-02-11T12:36:49.159Z,5.28
2019-02-11T12:39:17.202Z,4.95
2019-02-11T12:41:45.293Z,5.50
2019-02-11T12:44:13.879Z,5.50
2019-02-11T12:46:41.803Z,5.50
2019-02-11T12:49:09.987Z,5.40
2019-02-11T12:51:38.207Z,6.80
2019-02-11T12:54:07.107Z,6.25
2019-02-11T12:56:35.358Z,4.60
2019-02-11T12:59:03.578Z,4.20
2019-02-11T13:01:32.067Z,5.10
2019-02-11T13:04:00.420Z,7.70
2019-02-11T13:06:28.902Z,4.20
2019-02-11T13:08:56.888Z,5.95
2019-02-11T13:11:26.038Z,5.30
2019-02-11T13:13:54.925Z,3.85
2019-02-11T13:16:25.112Z,4.62
2019-02-11T13:18:53.430Z,4.70
2019-02-11T13:21:21.851Z,5.40
2019-02-11T13:23:49.742Z,4.55
2019-02-11T13:26:17.888Z,5.40
2019-02-11T13:28:45.898Z,5.33
2019-02-11T13:31:13.838Z,3.20
2019-02-11T13:33:44.042Z,4.63
2019-02-11T13:36:11.999Z,7.07
2019-02-11T13:38:39.954Z,4.35
2019-02-11T13:41:08.590Z,5.20
2019-02-11T13:43:36.653Z,4.03
2019-02-11T13:46:05.342Z,3.00
2019-02-11T13:48:35.034Z,2.90
2019-02-11T13:51:03.125Z,4.30
2019-02-11T13:53:31.490Z,3.50
2019-02-11T13:55:59.710Z,6.00
2019-02-11T13:58:28.942Z,4.13
2019-02-11T14:00:57.153Z,4.40
2019-02-11T14:03:25.119Z,3.57
2019-02-11T14:05:54.285Z,4.50
2019-02-11T14:08:23.832Z,3.93
2019-02-11T14:10:51.836Z,3.80
2019-02-11T14:13:20.125Z,3.85
2019-02-11T14:15:48.405Z,3.87
2019-02-11T14:18:16.575Z,3.20
2019-02-11T14:20:49.585Z,5.40
2019-02-11T14:23:15.367Z,4.35
2019-02-11T14:25:47.232Z,3.83
2019-02-11T14:28:15.556Z,3.62
2019-02-11T14:30:43.383Z,3.53
2019-02-11T14:33:11.615Z,3.17
2019-02-11T14:35:39.693Z,3.23
2019-02-11T14:38:07.599Z,3.73
2019-02-11T14:40:35.664Z,4.00
2019-02-11T14:43:03.508Z,2.55
2019-02-11T14:45:31.714Z,3.40
2019-02-11T14:47:59.857Z,2.60
2019-02-11T14:50:29.106Z,3.50
2019-02-11T14:52:57.233Z,3.73
2019-02-11T14:55:26.286Z,3.67
2019-02-11T14:57:54.810Z,4.57
2019-02-11T15:00:22.958Z,3.05
2019-02-11T15:02:50.605Z,4.28
2019-02-11T15:05:18.497Z,3.72
2019-02-11T15:07:47.015Z,2.22
2019-02-11T15:10:15.657Z,3.10
2019-02-11T15:12:44.073Z,2.97
2019-02-11T15:15:12.514Z,4.30
2019-02-11T15:17:41.438Z,5.53
2019-02-11T15:20:11.949Z,4.42
2019-02-11T15:22:39.810Z,3.55
2019-02-11T15:25:10.923Z,5.33
2019-02-11T15:27:39.826Z,5.50
2019-02-11T15:30:11.220Z,8.33
2019-02-11T15:32:39.992Z,3.80
2019-02-11T15:35:08.290Z,10.70
2019-02-11T15:37:36.442Z,6.60
2019-02-11T15:40:07.272Z,5.97
2019-02-11T15:42:36.720Z,11.80
2019-02-11T15:45:06.033Z,9.37
2019-02-11T15:47:34.529Z,6.83
2019-02-11T15:50:02.898Z,5.33
2019-02-11T15:52:30.793Z,4.05
2019-02-11T15:54:59.417Z,7.33
2019-02-11T15:57:28.337Z,7.00
2019-02-11T15:59:56.244Z,22.02
2019-02-11T16:02:24.030Z,7.05
2019-02-11T16:04:52.050Z,7.78
2019-02-11T16:07:19.873Z,4.23
2019-02-11T16:09:48.473Z,11.73
2019-02-11T16:12:16.986Z,6.30
2019-02-11T16:14:45.113Z,5.67
2019-02-11T16:17:13.191Z,5.60
2019-02-11T16:19:41.455Z,2.60
2019-02-11T16:22:09.299Z,9.05
2019-02-11T16:24:37.973Z,5.87
2019-02-11T16:27:07.007Z,8.37
2019-02-11T16:29:35.376Z,7.43
2019-02-11T16:32:03.481Z,4.33
2019-02-11T16:34:31.983Z,6.83
2019-02-11T16:36:59.748Z,5.92
2019-02-11T16:39:28.348Z,9.23
2019-02-11T16:41:56.837Z,6.10
2019-02-11T16:44:24.790Z,3.90
2019-02-11T16:46:53.180Z,8.25
2019-02-11T16:49:21.046Z,8.95
2019-02-11T16:51:48.993Z,7.15
2019-02-11T16:54:17.426Z,6.90
2019-02-11T16:56:45.410Z,8.50
2019-02-11T16:59:13.370Z,9.85
2019-02-11T17:01:43.005Z,5.30
2019-02-11T17:04:11.140Z,4.70
2019-02-11T17:07:53.758Z,6.90
2019-02-11T17:10:21.634Z,3.80
2019-02-11T17:12:49.012Z,5.90
2019-02-11T17:15:16.961Z,5.30
2019-02-11T17:17:44.507Z,6.20
2019-02-11T17:20:13.399Z,6.35
2019-02-11T17:22:40.595Z,6.33
2019-02-11T17:25:08.639Z,7.83
2019-02-11T17:27:36.188Z,4.57
2019-02-11T17:30:04.221Z,5.20
2019-02-11T17:32:31.487Z,5.30
2019-02-11T17:34:59.066Z,5.30
2019-02-11T17:37:26.812Z,6.40
2019-02-11T17:39:54.436Z,5.33
2019-02-11T17:42:21.777Z,6.60
2019-02-11T17:44:49.627Z,6.27
2019-02-11T17:47:17.609Z,5.95
2019-02-11T17:49:45.854Z,4.30
2019-02-11T17:52:14.830Z,5.80
2019-02-11T17:54:42.824Z,7.17
2019-02-11T17:57:10.165Z,6.40
2019-02-11T17:59:38.148Z,11.40
2019-02-11T18:02:11.113Z,9.45
2019-02-11T18:04:38.848Z,17.00
2019-02-11T18:07:06.147Z,21.00
2019-02-11T18:09:34.215Z,31.03
2019-02-11T18:12:02.225Z,30.50
2019-02-11T18:14:29.479Z,38.90
2019-02-11T18:16:57.328Z,39.93
2019-02-11T18:19:26.349Z,36.13
2019-02-11T18:22:50.427Z,44.35
2019-02-11T18:25:17.648Z,42.65
2019-02-11T18:27:45.314Z,43.50
2019-02-11T18:30:15.267Z,46.70
2019-02-11T18:32:44.265Z,42.10
2019-02-11T18:35:12.497Z,46.80
2019-02-11T18:37:42.220Z,48.85
2019-02-11T18:40:12.519Z,50.75
2019-02-11T18:42:40.962Z,56.05
2019-02-11T18:45:13.849Z,54.45
2019-02-11T18:47:41.905Z,49.35
2019-02-11T18:50:11.906Z,57.55
2019-02-11T18:52:40.391Z,43.50
2019-02-11T18:55:09.769Z,40.63
2019-02-11T18:57:38.001Z,45.58
2019-02-11T19:00:11.850Z,39.35
2019-02-11T19:02:43.107Z,40.00
2019-02-11T19:05:14.549Z,34.90
2019-02-11T19:07:46.929Z,37.50
2019-02-11T19:12:46.477Z,40.60
2019-02-11T19:15:16.588Z,41.20
2019-02-11T19:17:48.114Z,38.75
2019-02-11T19:20:19.285Z,43.40
2019-02-11T19:22:50.624Z,45.80
2019-02-11T19:25:21.996Z,48.55
2019-02-11T19:32:53.532Z,52.15
2019-02-11T19:38:24.139Z,51.05
2019-02-11T19:40:53.863Z,50.00
2019-02-11T19:43:23.180Z,51.68
2019-02-11T19:45:52.426Z,50.53
2019-02-11T19:48:23.153Z,48.60
2019-02-11T19:50:52.994Z,43.40
2019-02-11T19:53:24.226Z,39.95
2019-02-11T19:55:55.315Z,45.70
2019-02-11T19:58:25.551Z,40.80
2019-02-11T20:00:55.285Z,33.20
2019-02-11T20:03:24.996Z,33.30
2019-02-11T20:05:54.513Z,31.97
2019-02-11T20:08:24.056Z,33.40
2019-02-11T20:10:53.046Z,33.53
2019-02-11T20:13:23.294Z,35.03
2019-02-11T20:15:52.066Z,29.80
2019-02-11T20:18:20.746Z,24.40
2019-02-11T20:20:51.597Z,30.70
2019-02-11T20:23:21.883Z,20.30
2019-02-11T20:25:52.335Z,21.30
2019-02-11T20:28:22.767Z,27.40
2019-02-11T20:30:52.261Z,26.00
2019-02-11T20:33:24.350Z,29.90
2019-02-11T20:35:54.784Z,21.55
2019-02-11T20:38:25.158Z,24.33
2019-02-11T20:40:55.532Z,20.90
2019-02-11T20:43:26.576Z,17.77
2019-02-11T20:45:58.489Z,20.40
2019-02-11T20:48:28.918Z,19.05
2019-02-11T20:50:58.801Z,17.95
2019-02-11T20:53:30.381Z,19.20
2019-02-11T20:56:02.206Z,17.05
2019-02-11T20:58:32.759Z,21.90
2019-02-11T21:01:04.665Z,15.00
2019-02-11T21:03:34.414Z,21.55
2019-02-11T21:06:03.968Z,16.50
2019-02-11T21:08:35.888Z,17.05
2019-02-11T21:11:06.770Z,16.05
2019-02-11T21:13:36.132Z,18.20
2019-02-11T21:16:11.874Z,10.77
2019-02-11T21:18:42.236Z,13.70
2019-02-11T21:21:13.855Z,14.30
2019-02-11T21:23:45.525Z,16.40
2019-02-11T21:26:17.171Z,16.80
2019-02-11T21:28:47.733Z,12.30
2019-02-11T21:31:18.343Z,14.13
2019-02-11T21:33:48.683Z,14.15
2019-02-11T21:36:20.221Z,9.93
2019-02-11T21:38:51.360Z,11.30
2019-02-11T21:41:22.840Z,13.78
2019-02-11T21:43:53.183Z,13.00
2019-02-11T21:46:24.497Z,17.05
2019-02-11T21:48:55.369Z,12.25
2019-02-11T21:51:27.095Z,13.10
2019-02-11T21:53:57.500Z,12.90
2019-02-11T21:56:28.570Z,13.20
2019-02-11T21:58:59.404Z,15.50
2019-02-11T22:01:30.582Z,13.70
2019-02-11T22:04:01.487Z,15.85
2019-02-11T22:06:31.646Z,11.75
2019-02-11T22:09:01.956Z,12.20
2019-02-11T22:11:33.372Z,11.30
2019-02-11T22:14:04.446Z,9.30
2019-02-11T22:16:34.521Z,9.30
2019-02-11T22:19:05.975Z,9.53
2019-02-11T22:21:37.770Z,10.40
2019-02-11T22:24:09.288Z,10.30
2019-02-11T22:26:39.647Z,8.60
2019-02-11T22:29:10.900Z,9.00
2019-02-11T22:31:41.129Z,12.93
2019-02-11T22:34:13.354Z,9.35
2019-02-11T22:36:44.024Z,8.40
2019-02-11T22:39:15.191Z,10.20
2019-02-11T22:41:44.554Z,8.83
2019-02-11T22:46:43.997Z,9.30
2019-02-11T22:49:20.762Z,9.10
2019-02-11T22:54:21.874Z,9.95
2019-02-11T22:56:54.609Z,6.50
2019-02-11T22:59:25.520Z,8.25
2019-02-11T23:01:56.945Z,6.20
2019-02-11T23:04:28.148Z,9.60
2019-02-11T23:06:59.890Z,7.60
2019-02-11T23:09:30.248Z,6.80
2019-02-11T23:12:00.630Z,5.70
2019-02-11T23:14:32.770Z,11.80
2019-02-11T23:17:04.716Z,7.20
2019-02-11T23:19:36.084Z,7.90
2019-02-11T23:22:09.419Z,8.00
2019-02-11T23:24:42.818Z,7.33
2019-02-11T23:27:15.773Z,7.50
2019-02-11T23:29:47.283Z,8.10
2019-02-11T23:32:18.087Z,4.95
2019-02-11T23:34:49.573Z,8.05
2019-02-11T23:37:21.230Z,7.95
2019-02-11T23:39:52.148Z,8.40
2019-02-11T23:42:24.327Z,4.80
2019-02-11T23:44:55.209Z,8.20
2019-02-11T23:47:25.913Z,6.20
2019-02-11T23:49:55.738Z,6.10
2019-02-11T23:52:25.725Z,7.10
2019-02-11T23:54:56.033Z,7.75
2019-02-11T23:57:28.206Z,4.90
